sensor_id;sensor_type;location;lat;lon;timestamp;P1;durP1;ratioP1;P2;durP2;ratioP2
10269;SDS011;5180;50.832;5.390;2022-09-30T00:01:16;15.48;;;9.10;;
10269;SDS011;5180;50.832;5.390;2022-09-30T00:03:41;10.20;;;8.10;;
10269;SDS011;5180;50.832;5.390;2022-09-30T00:06:07;10.85;;;8.57;;
10269;SDS011;5180;50.832;5.390;2022-09-30T00:08:34;12.43;;;9.77;;
10269;SDS011;5180;50.832;5.390;2022-09-30T00:13:31;14.15;;;12.23;;
10269;SDS011;5180;50.832;5.390;2022-09-30T00:15:58;11.75;;;9.65;;
10269;SDS011;5180;50.832;5.390;2022-09-30T00:18:24;23.00;;;9.45;;
10269;SDS011;5180;50.832;5.390;2022-09-30T00:20:51;15.48;;;9.63;;
10269;SDS011;5180;50.832;5.390;2022-09-30T00:23:17;16.63;;;11.15;;
10269;SDS011;5180;50.832;5.390;2022-09-30T00:25:43;18.55;;;14.13;;
10269;SDS011;5180;50.832;5.390;2022-09-30T00:28:09;15.40;;;13.80;;
10269;SDS011;5180;50.832;5.390;2022-09-30T00:30:34;19.27;;;12.48;;
10269;SDS011;5180;50.832;5.390;2022-09-30T00:33:00;20.75;;;12.00;;
10269;SDS011;5180;50.832;5.390;2022-09-30T00:35:26;17.73;;;12.13;;
10269;SDS011;5180;50.832;5.390;2022-09-30T00:37:51;17.20;;;11.13;;
10269;SDS011;5180;50.832;5.390;2022-09-30T00:40:19;12.77;;;10.25;;
10269;SDS011;5180;50.832;5.390;2022-09-30T00:42:45;14.15;;;9.88;;
10269;SDS011;5180;50.832;5.390;2022-09-30T00:45:11;13.00;;;9.90;;
10269;SDS011;5180;50.832;5.390;2022-09-30T00:47:45;15.07;;;11.55;;
10269;SDS011;5180;50.832;5.390;2022-09-30T00:52:54;21.40;;;8.77;;
10269;SDS011;5180;50.832;5.390;2022-09-30T00:55:33;22.70;;;8.93;;
10269;SDS011;5180;50.832;5.390;2022-09-30T00:58:08;17.83;;;8.60;;
10269;SDS011;5180;50.832;5.390;2022-09-30T01:00:36;15.07;;;10.43;;
10269;SDS011;5180;50.832;5.390;2022-09-30T01:03:02;89.70;;;13.82;;
10269;SDS011;5180;50.832;5.390;2022-09-30T01:05:29;13.68;;;9.75;;
10269;SDS011;5180;50.832;5.390;2022-09-30T01:07:58;17.92;;;11.18;;
10269;SDS011;5180;50.832;5.390;2022-09-30T01:10:26;21.48;;;11.88;;
10269;SDS011;5180;50.832;5.390;2022-09-30T01:12:52;20.83;;;10.98;;
10269;SDS011;5180;50.832;5.390;2022-09-30T01:15:18;15.98;;;10.40;;
10269;SDS011;5180;50.832;5.390;2022-09-30T01:17:59;14.68;;;11.88;;
10269;SDS011;5180;50.832;5.390;2022-09-30T01:28:29;21.10;;;12.85;;
10269;SDS011;5180;50.832;5.390;2022-09-30T01:31:31;18.48;;;13.45;;
10269;SDS011;5180;50.832;5.390;2022-09-30T01:39:52;16.05;;;12.60;;
10269;SDS011;5180;50.832;5.390;2022-09-30T01:42:36;18.17;;;16.35;;
10269;SDS011;5180;50.832;5.390;2022-09-30T01:47:50;19.58;;;17.63;;
10269;SDS011;5180;50.832;5.390;2022-09-30T01:50:22;20.63;;;18.55;;
10269;SDS011;5180;50.832;5.390;2022-09-30T01:55:36;22.20;;;15.88;;
10269;SDS011;5180;50.832;5.390;2022-09-30T01:58:08;20.25;;;18.15;;
10269;SDS011;5180;50.832;5.390;2022-09-30T02:00:43;22.48;;;19.92;;
10269;SDS011;5180;50.832;5.390;2022-09-30T02:03:21;22.27;;;20.08;;
10269;SDS011;5180;50.832;5.390;2022-09-30T02:11:09;16.80;;;15.05;;
10269;SDS011;5180;50.832;5.390;2022-09-30T02:16:51;21.08;;;19.10;;
10269;SDS011;5180;50.832;5.390;2022-09-30T02:22:36;17.73;;;14.65;;
10269;SDS011;5180;50.832;5.390;2022-09-30T02:25:16;18.40;;;14.18;;
10269;SDS011;5180;50.832;5.390;2022-09-30T02:27:53;15.98;;;12.93;;
10269;SDS011;5180;50.832;5.390;2022-09-30T02:30:23;17.50;;;12.65;;
10269;SDS011;5180;50.832;5.390;2022-09-30T02:32:50;16.92;;;12.90;;
10269;SDS011;5180;50.832;5.390;2022-09-30T02:35:37;19.52;;;13.35;;
10269;SDS011;5180;50.832;5.390;2022-09-30T02:38:11;17.73;;;12.68;;
10269;SDS011;5180;50.832;5.390;2022-09-30T02:43:12;18.30;;;15.98;;
10269;SDS011;5180;50.832;5.390;2022-09-30T02:45:42;20.42;;;12.35;;
10269;SDS011;5180;50.832;5.390;2022-09-30T02:48:22;17.92;;;12.02;;
10269;SDS011;5180;50.832;5.390;2022-09-30T02:53:37;19.95;;;13.40;;
10269;SDS011;5180;50.832;5.390;2022-09-30T02:58:37;19.25;;;14.30;;
10269;SDS011;5180;50.832;5.390;2022-09-30T03:01:08;23.90;;;16.98;;
10269;SDS011;5180;50.832;5.390;2022-09-30T03:03:46;20.65;;;15.43;;
10269;SDS011;5180;50.832;5.390;2022-09-30T03:06:16;21.75;;;16.20;;
10269;SDS011;5180;50.832;5.390;2022-09-30T03:08:42;20.52;;;14.43;;
10269;SDS011;5180;50.832;5.390;2022-09-30T03:11:11;23.90;;;14.43;;
10269;SDS011;5180;50.832;5.390;2022-09-30T03:22:35;21.10;;;12.40;;
10269;SDS011;5180;50.832;5.390;2022-09-30T03:25:31;22.35;;;13.10;;
10269;SDS011;5180;50.832;5.390;2022-09-30T03:28:29;19.95;;;14.85;;
10269;SDS011;5180;50.832;5.390;2022-09-30T03:31:08;23.08;;;15.15;;
10269;SDS011;5180;50.832;5.390;2022-09-30T03:36:50;23.15;;;15.98;;
10269;SDS011;5180;50.832;5.390;2022-09-30T03:42:14;24.55;;;21.33;;
10269;SDS011;5180;50.832;5.390;2022-09-30T03:45:05;26.38;;;18.65;;
10269;SDS011;5180;50.832;5.390;2022-09-30T03:47:37;23.25;;;14.55;;
10269;SDS011;5180;50.832;5.390;2022-09-30T03:50:09;23.85;;;15.85;;
10269;SDS011;5180;50.832;5.390;2022-09-30T03:52:38;27.40;;;14.55;;
10269;SDS011;5180;50.832;5.390;2022-09-30T03:55:05;24.40;;;14.20;;
10269;SDS011;5180;50.832;5.390;2022-09-30T03:57:35;24.40;;;14.02;;
10269;SDS011;5180;50.832;5.390;2022-09-30T04:00:02;22.92;;;14.02;;
10269;SDS011;5180;50.832;5.390;2022-09-30T04:02:29;24.65;;;14.10;;
10269;SDS011;5180;50.832;5.390;2022-09-30T04:04:55;21.77;;;13.60;;
10269;SDS011;5180;50.832;5.390;2022-09-30T04:07:21;24.30;;;14.00;;
10269;SDS011;5180;50.832;5.390;2022-09-30T04:09:46;24.23;;;14.68;;
10269;SDS011;5180;50.832;5.390;2022-09-30T04:12:12;21.70;;;13.52;;
10269;SDS011;5180;50.832;5.390;2022-09-30T04:14:37;21.40;;;13.38;;
10269;SDS011;5180;50.832;5.390;2022-09-30T04:17:03;22.10;;;13.65;;
10269;SDS011;5180;50.832;5.390;2022-09-30T04:19:30;23.13;;;12.98;;
10269;SDS011;5180;50.832;5.390;2022-09-30T04:22:03;21.98;;;14.75;;
10269;SDS011;5180;50.832;5.390;2022-09-30T04:24:30;25.65;;;14.90;;
10269;SDS011;5180;50.832;5.390;2022-09-30T04:26:56;22.95;;;14.60;;
10269;SDS011;5180;50.832;5.390;2022-09-30T04:29:21;22.80;;;13.50;;
10269;SDS011;5180;50.832;5.390;2022-09-30T04:31:47;25.13;;;14.05;;
10269;SDS011;5180;50.832;5.390;2022-09-30T04:34:12;23.38;;;15.00;;
10269;SDS011;5180;50.832;5.390;2022-09-30T04:36:38;23.10;;;14.57;;
10269;SDS011;5180;50.832;5.390;2022-09-30T04:39:04;20.67;;;14.15;;
10269;SDS011;5180;50.832;5.390;2022-09-30T04:41:30;26.52;;;13.82;;
10269;SDS011;5180;50.832;5.390;2022-09-30T04:43:58;27.35;;;13.68;;
10269;SDS011;5180;50.832;5.390;2022-09-30T04:46:24;21.90;;;14.30;;
10269;SDS011;5180;50.832;5.390;2022-09-30T04:48:49;31.65;;;15.60;;
10269;SDS011;5180;50.832;5.390;2022-09-30T04:51:19;22.02;;;14.00;;
10269;SDS011;5180;50.832;5.390;2022-09-30T04:53:45;23.75;;;14.18;;
10269;SDS011;5180;50.832;5.390;2022-09-30T04:56:12;22.17;;;14.02;;
10269;SDS011;5180;50.832;5.390;2022-09-30T04:58:38;24.63;;;14.60;;
10269;SDS011;5180;50.832;5.390;2022-09-30T05:01:06;28.98;;;14.93;;
10269;SDS011;5180;50.832;5.390;2022-09-30T05:03:34;31.73;;;16.52;;
10269;SDS011;5180;50.832;5.390;2022-09-30T05:06:00;47.70;;;19.02;;
10269;SDS011;5180;50.832;5.390;2022-09-30T05:08:27;25.75;;;15.88;;
10269;SDS011;5180;50.832;5.390;2022-09-30T05:10:55;30.10;;;14.20;;
10269;SDS011;5180;50.832;5.390;2022-09-30T05:13:25;22.48;;;13.18;;
10269;SDS011;5180;50.832;5.390;2022-09-30T05:15:55;24.98;;;13.73;;
10269;SDS011;5180;50.832;5.390;2022-09-30T05:18:20;27.08;;;14.02;;
10269;SDS011;5180;50.832;5.390;2022-09-30T05:20:50;26.52;;;14.20;;
10269;SDS011;5180;50.832;5.390;2022-09-30T05:23:17;25.05;;;14.57;;
10269;SDS011;5180;50.832;5.390;2022-09-30T05:25:43;27.88;;;13.50;;
10269;SDS011;5180;50.832;5.390;2022-09-30T05:28:09;45.08;;;15.35;;
10269;SDS011;5180;50.832;5.390;2022-09-30T05:30:36;26.13;;;14.63;;
10269;SDS011;5180;50.832;5.390;2022-09-30T05:33:02;25.30;;;15.88;;
10269;SDS011;5180;50.832;5.390;2022-09-30T05:35:28;57.40;;;17.83;;
10269;SDS011;5180;50.832;5.390;2022-09-30T05:37:54;40.03;;;15.20;;
10269;SDS011;5180;50.832;5.390;2022-09-30T05:40:19;61.10;;;15.52;;
10269;SDS011;5180;50.832;5.390;2022-09-30T05:42:45;23.45;;;15.68;;
10269;SDS011;5180;50.832;5.390;2022-09-30T05:45:11;29.15;;;16.02;;
10269;SDS011;5180;50.832;5.390;2022-09-30T05:47:37;27.02;;;17.38;;
10269;SDS011;5180;50.832;5.390;2022-09-30T05:50:03;26.20;;;16.17;;
10269;SDS011;5180;50.832;5.390;2022-09-30T05:52:29;29.77;;;19.42;;
10269;SDS011;5180;50.832;5.390;2022-09-30T05:54:55;27.70;;;15.02;;
10269;SDS011;5180;50.832;5.390;2022-09-30T05:57:25;24.45;;;14.38;;
10269;SDS011;5180;50.832;5.390;2022-09-30T05:59:52;30.85;;;16.95;;
10269;SDS011;5180;50.832;5.390;2022-09-30T06:02:19;32.08;;;15.32;;
10269;SDS011;5180;50.832;5.390;2022-09-30T06:04:44;30.25;;;18.38;;
10269;SDS011;5180;50.832;5.390;2022-09-30T06:07:10;26.40;;;15.75;;
10269;SDS011;5180;50.832;5.390;2022-09-30T06:09:37;27.60;;;17.83;;
10269;SDS011;5180;50.832;5.390;2022-09-30T06:12:02;29.02;;;16.33;;
10269;SDS011;5180;50.832;5.390;2022-09-30T06:14:30;29.08;;;18.17;;
10269;SDS011;5180;50.832;5.390;2022-09-30T06:16:56;33.20;;;20.80;;
10269;SDS011;5180;50.832;5.390;2022-09-30T06:19:24;31.00;;;20.27;;
10269;SDS011;5180;50.832;5.390;2022-09-30T06:21:52;26.65;;;17.00;;
10269;SDS011;5180;50.832;5.390;2022-09-30T06:24:18;33.78;;;22.08;;
10269;SDS011;5180;50.832;5.390;2022-09-30T06:26:44;31.55;;;26.52;;
10269;SDS011;5180;50.832;5.390;2022-09-30T06:29:09;32.22;;;18.40;;
10269;SDS011;5180;50.832;5.390;2022-09-30T06:31:35;33.33;;;19.05;;
10269;SDS011;5180;50.832;5.390;2022-09-30T06:34:01;32.15;;;21.60;;
10269;SDS011;5180;50.832;5.390;2022-09-30T06:36:27;38.13;;;22.00;;
10269;SDS011;5180;50.832;5.390;2022-09-30T06:38:53;33.58;;;22.48;;
10269;SDS011;5180;50.832;5.390;2022-09-30T06:41:19;32.72;;;22.40;;
10269;SDS011;5180;50.832;5.390;2022-09-30T06:43:51;32.50;;;25.13;;
10269;SDS011;5180;50.832;5.390;2022-09-30T06:46:16;31.20;;;22.60;;
10269;SDS011;5180;50.832;5.390;2022-09-30T06:48:42;39.00;;;25.02;;
10269;SDS011;5180;50.832;5.390;2022-09-30T06:51:08;36.15;;;24.67;;
10269;SDS011;5180;50.832;5.390;2022-09-30T06:53:36;33.53;;;23.13;;
10269;SDS011;5180;50.832;5.390;2022-09-30T06:56:04;32.63;;;23.77;;
10269;SDS011;5180;50.832;5.390;2022-09-30T06:58:30;38.90;;;25.45;;
10269;SDS011;5180;50.832;5.390;2022-09-30T07:00:57;38.72;;;25.42;;
10269;SDS011;5180;50.832;5.390;2022-09-30T07:03:25;38.30;;;24.70;;
10269;SDS011;5180;50.832;5.390;2022-09-30T07:05:57;35.30;;;26.10;;
10269;SDS011;5180;50.832;5.390;2022-09-30T07:08:24;37.90;;;25.48;;
10269;SDS011;5180;50.832;5.390;2022-09-30T07:10:51;32.20;;;24.42;;
10269;SDS011;5180;50.832;5.390;2022-09-30T07:13:17;39.28;;;31.55;;
10269;SDS011;5180;50.832;5.390;2022-09-30T07:15:42;47.53;;;41.45;;
10269;SDS011;5180;50.832;5.390;2022-09-30T07:18:08;55.78;;;48.40;;
10269;SDS011;5180;50.832;5.390;2022-09-30T07:20:34;96.55;;;87.95;;
10269;SDS011;5180;50.832;5.390;2022-09-30T07:23:00;80.00;;;73.22;;
10269;SDS011;5180;50.832;5.390;2022-09-30T07:25:26;98.63;;;90.50;;
10269;SDS011;5180;50.832;5.390;2022-09-30T07:27:51;112.85;;;104.30;;
10269;SDS011;5180;50.832;5.390;2022-09-30T07:30:19;115.43;;;106.82;;
10269;SDS011;5180;50.832;5.390;2022-09-30T07:32:46;84.57;;;78.15;;
10269;SDS011;5180;50.832;5.390;2022-09-30T07:35:12;59.97;;;54.80;;
10269;SDS011;5180;50.832;5.390;2022-09-30T07:37:37;65.35;;;59.97;;
10269;SDS011;5180;50.832;5.390;2022-09-30T07:40:04;53.70;;;49.25;;
10269;SDS011;5180;50.832;5.390;2022-09-30T07:42:31;55.80;;;51.10;;
10269;SDS011;5180;50.832;5.390;2022-09-30T07:44:57;42.38;;;38.75;;
10269;SDS011;5180;50.832;5.390;2022-09-30T07:47:23;38.65;;;35.00;;
10269;SDS011;5180;50.832;5.390;2022-09-30T07:49:48;31.85;;;28.70;;
10269;SDS011;5180;50.832;5.390;2022-09-30T07:52:14;25.95;;;20.77;;
10269;SDS011;5180;50.832;5.390;2022-09-30T07:54:40;30.50;;;27.42;;
10269;SDS011;5180;50.832;5.390;2022-09-30T07:57:06;22.25;;;19.13;;
10269;SDS011;5180;50.832;5.390;2022-09-30T07:59:34;23.77;;;19.85;;
10269;SDS011;5180;50.832;5.390;2022-09-30T08:02:02;27.67;;;24.80;;
10269;SDS011;5180;50.832;5.390;2022-09-30T08:04:29;28.45;;;25.63;;
10269;SDS011;5180;50.832;5.390;2022-09-30T08:06:55;20.42;;;17.25;;
10269;SDS011;5180;50.832;5.390;2022-09-30T08:09:24;20.42;;;17.58;;
10269;SDS011;5180;50.832;5.390;2022-09-30T08:11:52;21.50;;;18.60;;
10269;SDS011;5180;50.832;5.390;2022-09-30T08:14:19;22.67;;;17.58;;
10269;SDS011;5180;50.832;5.390;2022-09-30T08:16:46;21.27;;;16.10;;
10269;SDS011;5180;50.832;5.390;2022-09-30T08:19:13;18.83;;;15.85;;
10269;SDS011;5180;50.832;5.390;2022-09-30T08:21:41;21.50;;;16.13;;
10269;SDS011;5180;50.832;5.390;2022-09-30T08:24:07;20.75;;;15.77;;
10269;SDS011;5180;50.832;5.390;2022-09-30T08:26:33;18.52;;;15.35;;
10269;SDS011;5180;50.832;5.390;2022-09-30T08:28:59;18.75;;;14.82;;
10269;SDS011;5180;50.832;5.390;2022-09-30T08:31:25;17.25;;;13.93;;
10269;SDS011;5180;50.832;5.390;2022-09-30T08:33:51;18.40;;;14.38;;
10269;SDS011;5180;50.832;5.390;2022-09-30T08:36:21;18.85;;;13.98;;
10269;SDS011;5180;50.832;5.390;2022-09-30T08:38:48;15.60;;;13.55;;
10269;SDS011;5180;50.832;5.390;2022-09-30T08:52:21;14.82;;;11.32;;
10269;SDS011;5180;50.832;5.390;2022-09-30T08:54:52;13.75;;;11.00;;
10269;SDS011;5180;50.832;5.390;2022-09-30T08:57:19;10.63;;;8.43;;
10269;SDS011;5180;50.832;5.390;2022-09-30T08:59:57;11.15;;;8.50;;
10269;SDS011;5180;50.832;5.390;2022-09-30T09:02:30;10.88;;;8.00;;
10269;SDS011;5180;50.832;5.390;2022-09-30T09:05:01;10.63;;;8.35;;
10269;SDS011;5180;50.832;5.390;2022-09-30T09:07:38;12.35;;;8.23;;
10269;SDS011;5180;50.832;5.390;2022-09-30T09:10:31;13.23;;;8.13;;
10269;SDS011;5180;50.832;5.390;2022-09-30T09:20:50;12.65;;;7.55;;
10269;SDS011;5180;50.832;5.390;2022-09-30T09:23:28;13.63;;;7.40;;
10269;SDS011;5180;50.832;5.390;2022-09-30T09:25:56;10.55;;;7.40;;
10269;SDS011;5180;50.832;5.390;2022-09-30T09:28:30;10.52;;;7.60;;
10269;SDS011;5180;50.832;5.390;2022-09-30T09:31:02;14.13;;;7.55;;
10269;SDS011;5180;50.832;5.390;2022-09-30T09:33:34;10.57;;;6.88;;
10269;SDS011;5180;50.832;5.390;2022-09-30T09:36:16;8.82;;;6.82;;
10269;SDS011;5180;50.832;5.390;2022-09-30T09:45:02;8.48;;;5.97;;
10269;SDS011;5180;50.832;5.390;2022-09-30T09:47:09;9.10;;;6.50;;
10269;SDS011;5180;50.832;5.390;2022-09-30T09:49:42;8.07;;;5.85;;
10269;SDS011;5180;50.832;5.390;2022-09-30T09:54:52;8.18;;;6.03;;
10269;SDS011;5180;50.832;5.390;2022-09-30T09:57:23;7.20;;;5.60;;
10269;SDS011;5180;50.832;5.390;2022-09-30T10:00:38;7.30;;;5.53;;
10269;SDS011;5180;50.832;5.390;2022-09-30T10:05:33;8.82;;;5.28;;
10269;SDS011;5180;50.832;5.390;2022-09-30T10:08:14;6.78;;;5.43;;
10269;SDS011;5180;50.832;5.390;2022-09-30T10:10:51;7.30;;;4.97;;
10269;SDS011;5180;50.832;5.390;2022-09-30T10:15:54;6.18;;;4.45;;
10269;SDS011;5180;50.832;5.390;2022-09-30T10:20:57;7.40;;;4.80;;
10269;SDS011;5180;50.832;5.390;2022-09-30T10:23:26;7.05;;;4.40;;
10269;SDS011;5180;50.832;5.390;2022-09-30T10:33:54;5.18;;;3.78;;
10269;SDS011;5180;50.832;5.390;2022-09-30T10:36:21;6.20;;;4.00;;
10269;SDS011;5180;50.832;5.390;2022-09-30T10:41:25;4.72;;;3.58;;
10269;SDS011;5180;50.832;5.390;2022-09-30T10:43:54;7.47;;;4.20;;
10269;SDS011;5180;50.832;5.390;2022-09-30T10:46:24;6.80;;;4.38;;
10269;SDS011;5180;50.832;5.390;2022-09-30T10:49:07;7.00;;;4.25;;
10269;SDS011;5180;50.832;5.390;2022-09-30T10:51:35;6.57;;;3.97;;
10269;SDS011;5180;50.832;5.390;2022-09-30T10:54:02;5.45;;;3.83;;
10269;SDS011;5180;50.832;5.390;2022-09-30T10:56:33;6.13;;;4.00;;
10269;SDS011;5180;50.832;5.390;2022-09-30T10:59:02;5.88;;;4.15;;
10269;SDS011;5180;50.832;5.390;2022-09-30T11:01:39;5.57;;;4.00;;
10269;SDS011;5180;50.832;5.390;2022-09-30T11:04:16;5.15;;;4.10;;
10269;SDS011;5180;50.832;5.390;2022-09-30T11:06:53;5.32;;;3.58;;
10269;SDS011;5180;50.832;5.390;2022-09-30T11:09:33;4.68;;;4.00;;
10269;SDS011;5180;50.832;5.390;2022-09-30T11:12:04;4.05;;;3.13;;
10269;SDS011;5180;50.832;5.390;2022-09-30T11:15:01;2.78;;;2.10;;
10269;SDS011;5180;50.832;5.390;2022-09-30T11:17:33;2.75;;;2.08;;
10269;SDS011;5180;50.832;5.390;2022-09-30T11:23:15;2.63;;;1.65;;
10269;SDS011;5180;50.832;5.390;2022-09-30T11:26:03;2.92;;;1.40;;
10269;SDS011;5180;50.832;5.390;2022-09-30T11:31:39;1.75;;;1.50;;
10269;SDS011;5180;50.832;5.390;2022-09-30T11:42:58;2.47;;;1.20;;
10269;SDS011;5180;50.832;5.390;2022-09-30T11:46:09;1.38;;;1.27;;
10269;SDS011;5180;50.832;5.390;2022-09-30T11:56:56;2.20;;;1.48;;
10269;SDS011;5180;50.832;5.390;2022-09-30T12:02:01;1.60;;;1.50;;
10269;SDS011;5180;50.832;5.390;2022-09-30T12:04:34;1.67;;;1.30;;
10269;SDS011;5180;50.832;5.390;2022-09-30T12:07:13;1.30;;;1.00;;
10269;SDS011;5180;50.832;5.390;2022-09-30T12:10:06;1.45;;;1.10;;
10269;SDS011;5180;50.832;5.390;2022-09-30T12:12:58;1.30;;;1.05;;
10269;SDS011;5180;50.832;5.390;2022-09-30T12:15:28;25.00;;;2.22;;
10269;SDS011;5180;50.832;5.390;2022-09-30T12:17:57;1.33;;;1.02;;
10269;SDS011;5180;50.832;5.390;2022-09-30T12:25:57;1.30;;;1.10;;
10269;SDS011;5180;50.832;5.390;2022-09-30T12:33:49;1.58;;;1.00;;
10269;SDS011;5180;50.832;5.390;2022-09-30T12:36:34;1.55;;;1.30;;
10269;SDS011;5180;50.832;5.390;2022-09-30T12:50:12;3.20;;;1.20;;
10269;SDS011;5180;50.832;5.390;2022-09-30T12:52:40;1.40;;;1.20;;
10269;SDS011;5180;50.832;5.390;2022-09-30T12:55:08;1.50;;;1.33;;
10269;SDS011;5180;50.832;5.390;2022-09-30T12:57:38;2.67;;;1.33;;
10269;SDS011;5180;50.832;5.390;2022-09-30T13:00:13;1.52;;;1.30;;
10269;SDS011;5180;50.832;5.390;2022-09-30T13:03:03;1.67;;;1.48;;
10269;SDS011;5180;50.832;5.390;2022-09-30T13:10:31;2.35;;;1.60;;
10269;SDS011;5180;50.832;5.390;2022-09-30T13:15:50;2.33;;;1.65;;
10269;SDS011;5180;50.832;5.390;2022-09-30T13:34:26;2.40;;;2.20;;
10269;SDS011;5180;50.832;5.390;2022-09-30T13:37:00;2.75;;;2.20;;
10269;SDS011;5180;50.832;5.390;2022-09-30T13:39:42;2.45;;;2.08;;
10269;SDS011;5180;50.832;5.390;2022-09-30T13:42:15;1.90;;;1.75;;
10269;SDS011;5180;50.832;5.390;2022-09-30T13:44:59;2.47;;;1.90;;
10269;SDS011;5180;50.832;5.390;2022-09-30T13:52:53;2.72;;;2.00;;
10269;SDS011;5180;50.832;5.390;2022-09-30T13:55:32;2.67;;;2.42;;
10269;SDS011;5180;50.832;5.390;2022-09-30T14:01:39;3.03;;;2.72;;
10269;SDS011;5180;50.832;5.390;2022-09-30T14:19:27;3.53;;;2.83;;
10269;SDS011;5180;50.832;5.390;2022-09-30T14:21:43;3.10;;;2.80;;
10269;SDS011;5180;50.832;5.390;2022-09-30T14:24:25;1.92;;;1.80;;
10269;SDS011;5180;50.832;5.390;2022-09-30T14:32:52;3.10;;;1.67;;
10269;SDS011;5180;50.832;5.390;2022-09-30T14:35:26;2.78;;;1.95;;
10269;SDS011;5180;50.832;5.390;2022-09-30T14:38:28;3.28;;;1.90;;
10269;SDS011;5180;50.832;5.390;2022-09-30T14:40:52;3.38;;;1.77;;
10269;SDS011;5180;50.832;5.390;2022-09-30T14:43:28;3.35;;;2.30;;
10269;SDS011;5180;50.832;5.390;2022-09-30T14:46:00;1.92;;;1.73;;
10269;SDS011;5180;50.832;5.390;2022-09-30T14:48:37;3.72;;;1.90;;
10269;SDS011;5180;50.832;5.390;2022-09-30T14:51:08;2.47;;;2.00;;
10269;SDS011;5180;50.832;5.390;2022-09-30T14:53:39;1.95;;;1.60;;
10269;SDS011;5180;50.832;5.390;2022-09-30T14:56:25;2.10;;;1.90;;
10269;SDS011;5180;50.832;5.390;2022-09-30T14:58:56;2.42;;;2.22;;
10269;SDS011;5180;50.832;5.390;2022-09-30T15:01:23;2.45;;;2.00;;
10269;SDS011;5180;50.832;5.390;2022-09-30T15:04:04;2.58;;;2.38;;
10269;SDS011;5180;50.832;5.390;2022-09-30T15:06:51;2.10;;;1.90;;
10269;SDS011;5180;50.832;5.390;2022-09-30T15:09:22;1.90;;;1.70;;
10269;SDS011;5180;50.832;5.390;2022-09-30T15:12:01;2.28;;;1.60;;
10269;SDS011;5180;50.832;5.390;2022-09-30T15:14:29;1.58;;;1.48;;
10269;SDS011;5180;50.832;5.390;2022-09-30T15:16:57;2.17;;;1.45;;
10269;SDS011;5180;50.832;5.390;2022-09-30T15:19:27;1.50;;;1.00;;
10269;SDS011;5180;50.832;5.390;2022-09-30T15:21:58;2.47;;;1.30;;
10269;SDS011;5180;50.832;5.390;2022-09-30T15:24:27;3.80;;;1.40;;
10269;SDS011;5180;50.832;5.390;2022-09-30T15:26:55;1.60;;;1.20;;
10269;SDS011;5180;50.832;5.390;2022-09-30T15:29:21;2.00;;;1.42;;
10269;SDS011;5180;50.832;5.390;2022-09-30T15:31:53;1.40;;;1.30;;
10269;SDS011;5180;50.832;5.390;2022-09-30T15:34:25;2.55;;;1.50;;
10269;SDS011;5180;50.832;5.390;2022-09-30T15:36:58;1.70;;;1.60;;
10269;SDS011;5180;50.832;5.390;2022-09-30T15:39:45;2.15;;;1.80;;
10269;SDS011;5180;50.832;5.390;2022-09-30T15:48:01;1.17;;;1.08;;
10269;SDS011;5180;50.832;5.390;2022-09-30T15:50:50;1.33;;;1.23;;
10269;SDS011;5180;50.832;5.390;2022-09-30T15:53:28;1.10;;;1.02;;
10269;SDS011;5180;50.832;5.390;2022-09-30T15:55:56;1.45;;;1.15;;
10269;SDS011;5180;50.832;5.390;2022-09-30T15:58:46;1.88;;;1.25;;
10269;SDS011;5180;50.832;5.390;2022-09-30T16:01:34;1.95;;;1.65;;
10269;SDS011;5180;50.832;5.390;2022-09-30T16:04:42;1.58;;;1.48;;
10269;SDS011;5180;50.832;5.390;2022-09-30T16:17:51;1.65;;;1.55;;
10269;SDS011;5180;50.832;5.390;2022-09-30T16:27:44;2.47;;;1.77;;
10269;SDS011;5180;50.832;5.390;2022-09-30T16:30:13;3.05;;;2.88;;
10269;SDS011;5180;50.832;5.390;2022-09-30T16:32:42;5.15;;;4.85;;
10269;SDS011;5180;50.832;5.390;2022-09-30T16:35:18;2.95;;;2.75;;
10269;SDS011;5180;50.832;5.390;2022-09-30T16:37:48;3.03;;;2.83;;
10269;SDS011;5180;50.832;5.390;2022-09-30T16:40:21;3.38;;;3.15;;
10269;SDS011;5180;50.832;5.390;2022-09-30T16:42:48;2.05;;;1.95;;
10269;SDS011;5180;50.832;5.390;2022-09-30T16:45:14;3.30;;;3.03;;
10269;SDS011;5180;50.832;5.390;2022-09-30T16:47:41;2.55;;;2.33;;
10269;SDS011;5180;50.832;5.390;2022-09-30T16:50:18;2.22;;;2.10;;
10269;SDS011;5180;50.832;5.390;2022-09-30T16:52:47;2.47;;;1.90;;
10269;SDS011;5180;50.832;5.390;2022-09-30T16:55:13;2.45;;;2.25;;
10269;SDS011;5180;50.832;5.390;2022-09-30T16:57:39;2.70;;;2.50;;
10269;SDS011;5180;50.832;5.390;2022-09-30T17:00:05;3.88;;;3.58;;
10269;SDS011;5180;50.832;5.390;2022-09-30T17:02:31;4.30;;;4.05;;
10269;SDS011;5180;50.832;5.390;2022-09-30T17:04:57;5.55;;;5.13;;
10269;SDS011;5180;50.832;5.390;2022-09-30T17:07:23;11.55;;;10.88;;
10269;SDS011;5180;50.832;5.390;2022-09-30T17:09:48;12.73;;;12.05;;
10269;SDS011;5180;50.832;5.390;2022-09-30T17:12:15;3.00;;;2.80;;
10269;SDS011;5180;50.832;5.390;2022-09-30T17:14:41;10.48;;;9.70;;
10269;SDS011;5180;50.832;5.390;2022-09-30T17:17:07;10.27;;;9.68;;
10269;SDS011;5180;50.832;5.390;2022-09-30T17:19:33;5.43;;;3.85;;
10269;SDS011;5180;50.832;5.390;2022-09-30T17:22:03;4.38;;;3.58;;
10269;SDS011;5180;50.832;5.390;2022-09-30T17:24:29;8.60;;;8.00;;
10269;SDS011;5180;50.832;5.390;2022-09-30T17:26:55;6.55;;;5.93;;
10269;SDS011;5180;50.832;5.390;2022-09-30T17:29:22;15.80;;;14.65;;
10269;SDS011;5180;50.832;5.390;2022-09-30T17:31:47;20.30;;;19.02;;
10269;SDS011;5180;50.832;5.390;2022-09-30T17:34:13;16.70;;;11.80;;
10269;SDS011;5180;50.832;5.390;2022-09-30T17:36:38;32.58;;;29.02;;
10269;SDS011;5180;50.832;5.390;2022-09-30T17:39:05;13.80;;;12.93;;
10269;SDS011;5180;50.832;5.390;2022-09-30T17:41:31;11.25;;;10.45;;
10269;SDS011;5180;50.832;5.390;2022-09-30T17:44:16;11.90;;;11.07;;
10269;SDS011;5180;50.832;5.390;2022-09-30T17:46:42;8.00;;;7.43;;
10269;SDS011;5180;50.832;5.390;2022-09-30T17:49:12;10.43;;;9.52;;
10269;SDS011;5180;50.832;5.390;2022-09-30T17:51:39;6.35;;;5.85;;
10269;SDS011;5180;50.832;5.390;2022-09-30T17:54:05;13.60;;;10.23;;
10269;SDS011;5180;50.832;5.390;2022-09-30T17:56:31;18.50;;;17.45;;
10269;SDS011;5180;50.832;5.390;2022-09-30T17:58:57;11.90;;;10.38;;
10269;SDS011;5180;50.832;5.390;2022-09-30T18:01:25;9.27;;;8.68;;
10269;SDS011;5180;50.832;5.390;2022-09-30T18:03:50;10.00;;;9.35;;
10269;SDS011;5180;50.832;5.390;2022-09-30T18:06:17;10.35;;;9.77;;
10269;SDS011;5180;50.832;5.390;2022-09-30T18:08:47;10.98;;;10.32;;
10269;SDS011;5180;50.832;5.390;2022-09-30T18:11:20;8.85;;;7.10;;
10269;SDS011;5180;50.832;5.390;2022-09-30T18:13:57;7.45;;;6.95;;
10269;SDS011;5180;50.832;5.390;2022-09-30T18:16:24;7.35;;;6.75;;
10269;SDS011;5180;50.832;5.390;2022-09-30T18:18:54;8.07;;;7.47;;
10269;SDS011;5180;50.832;5.390;2022-09-30T18:21:20;7.00;;;6.43;;
10269;SDS011;5180;50.832;5.390;2022-09-30T18:23:46;8.77;;;8.27;;
10269;SDS011;5180;50.832;5.390;2022-09-30T18:26:14;9.38;;;8.75;;
10269;SDS011;5180;50.832;5.390;2022-09-30T18:28:39;7.85;;;7.22;;
10269;SDS011;5180;50.832;5.390;2022-09-30T18:31:06;7.35;;;6.85;;
10269;SDS011;5180;50.832;5.390;2022-09-30T18:33:32;8.80;;;8.20;;
10269;SDS011;5180;50.832;5.390;2022-09-30T18:35:59;5.05;;;4.70;;
10269;SDS011;5180;50.832;5.390;2022-09-30T18:38:24;8.18;;;7.65;;
10269;SDS011;5180;50.832;5.390;2022-09-30T18:40:51;10.15;;;9.55;;
10269;SDS011;5180;50.832;5.390;2022-09-30T18:43:18;11.57;;;10.63;;
10269;SDS011;5180;50.832;5.390;2022-09-30T18:45:51;6.90;;;6.40;;
10269;SDS011;5180;50.832;5.390;2022-09-30T18:48:18;8.95;;;8.15;;
10269;SDS011;5180;50.832;5.390;2022-09-30T18:50:43;8.30;;;7.65;;
10269;SDS011;5180;50.832;5.390;2022-09-30T18:53:11;8.60;;;7.90;;
10269;SDS011;5180;50.832;5.390;2022-09-30T18:55:37;7.93;;;7.40;;